createdAt,value
2018-10-17T00:00:00.830Z,16.42
2018-10-17T00:01:00.862Z,16.37
2018-10-17T00:02:00.865Z,16.50
2018-10-17T00:03:00.891Z,16.45
2018-10-17T00:04:00.904Z,16.41
2018-10-17T00:05:00.981Z,16.49
2018-10-17T00:06:00.941Z,16.42
2018-10-17T00:07:01.024Z,16.60
2018-10-17T00:08:00.977Z,16.60
2018-10-17T00:09:00.996Z,16.59
2018-10-17T00:10:01.014Z,16.62
2018-10-17T00:11:01.072Z,16.59
2018-10-17T00:12:01.056Z,16.68
2018-10-17T00:13:01.112Z,16.67
2018-10-17T00:14:01.087Z,16.67
2018-10-17T00:15:01.113Z,16.71
2018-10-17T00:16:01.134Z,16.62
2018-10-17T00:17:01.169Z,16.63
2018-10-17T00:18:01.157Z,16.58
2018-10-17T00:19:01.237Z,16.58
2018-10-17T00:20:01.200Z,16.55
2018-10-17T00:21:01.213Z,16.55
2018-10-17T00:22:01.236Z,16.56
2018-10-17T00:23:01.322Z,16.60
2018-10-17T00:24:01.277Z,16.59
2018-10-17T00:25:01.324Z,16.59
2018-10-17T00:26:01.319Z,16.56
2018-10-17T00:27:01.325Z,16.58
2018-10-17T00:28:01.356Z,16.60
2018-10-17T00:29:01.431Z,16.62
2018-10-17T00:30:01.401Z,16.59
2018-10-17T00:31:01.466Z,16.56
2018-10-17T00:32:01.433Z,16.50
2018-10-17T00:33:01.444Z,16.56
2018-10-17T00:34:01.455Z,16.59
2018-10-17T00:35:01.523Z,16.52
2018-10-17T00:36:01.514Z,16.50
2018-10-17T00:37:01.569Z,16.56
2018-10-17T00:38:01.539Z,16.50
2018-10-17T00:39:01.553Z,16.40
2018-10-17T00:40:01.567Z,16.48
2018-10-17T00:41:01.640Z,16.44
2018-10-17T00:42:01.604Z,16.41
2018-10-17T00:43:01.632Z,16.40
2018-10-17T00:44:01.655Z,16.33
2018-10-17T00:45:01.663Z,16.27
2018-10-17T00:46:01.687Z,16.27
2018-10-17T00:47:01.708Z,16.20
2018-10-17T00:48:01.718Z,16.20
2018-10-17T00:49:01.765Z,16.16
2018-10-17T00:50:01.754Z,16.16
2018-10-17T00:51:01.775Z,16.09
2018-10-17T00:52:01.792Z,16.16
2018-10-17T00:53:01.841Z,16.15
2018-10-17T00:54:01.830Z,16.07
2018-10-17T00:55:01.872Z,16.03
2018-10-17T00:56:01.863Z,16.06
2018-10-17T00:57:01.880Z,16.04
2018-10-17T00:58:01.915Z,15.93
2018-10-17T00:59:01.995Z,15.94
2018-10-17T01:00:01.945Z,16.03
2018-10-17T01:01:02.027Z,15.94
2018-10-17T01:02:01.978Z,15.99
2018-10-17T01:03:02.000Z,15.89
2018-10-17T01:04:02.021Z,15.92
2018-10-17T01:05:02.098Z,15.94
2018-10-17T01:06:02.049Z,15.99
2018-10-17T01:07:02.092Z,15.92
2018-10-17T01:08:02.087Z,15.88
2018-10-17T01:09:02.103Z,15.86
2018-10-17T01:10:02.127Z,15.89
2018-10-17T01:11:02.164Z,15.93
2018-10-17T01:12:02.157Z,15.82
2018-10-17T01:13:02.209Z,15.82
2018-10-17T01:14:02.197Z,15.88
2018-10-17T01:15:02.212Z,15.79
2018-10-17T01:16:02.234Z,15.86
2018-10-17T01:17:02.289Z,15.82
2018-10-17T01:18:02.266Z,15.88
2018-10-17T01:19:02.325Z,15.85
2018-10-17T01:20:02.311Z,15.85
2018-10-17T01:21:02.330Z,15.81
2018-10-17T01:22:02.344Z,15.85
2018-10-17T01:23:02.461Z,15.88
2018-10-17T01:24:02.380Z,15.75
2018-10-17T01:25:02.431Z,15.74
2018-10-17T01:26:02.417Z,15.72
2018-10-17T01:27:02.437Z,15.67
2018-10-17T01:28:02.457Z,15.64
2018-10-17T01:29:02.543Z,15.61
2018-10-17T01:30:02.494Z,15.70
2018-10-17T01:31:02.536Z,15.67
2018-10-17T01:32:02.536Z,15.74
2018-10-17T01:33:02.560Z,15.61
2018-10-17T01:34:02.563Z,15.57
2018-10-17T01:35:02.600Z,15.57
2018-10-17T01:36:02.597Z,15.52
2018-10-17T01:37:02.621Z,15.59
2018-10-17T01:38:02.636Z,15.54
2018-10-17T01:39:02.657Z,15.52
2018-10-17T01:40:02.677Z,15.42
2018-10-17T01:41:02.762Z,15.46
2018-10-17T01:42:02.704Z,15.39
2018-10-17T01:43:02.819Z,15.42
2018-10-17T01:44:02.743Z,15.43
2018-10-17T01:45:02.765Z,15.31
2018-10-17T01:46:02.787Z,15.31
2018-10-17T01:47:02.865Z,15.31
2018-10-17T01:48:02.821Z,15.36
2018-10-17T01:49:03.274Z,15.35
2018-10-17T01:50:02.855Z,15.31
2018-10-17T01:51:02.870Z,15.30
2018-10-17T01:52:02.895Z,15.33
2018-10-17T01:53:02.922Z,15.26
2018-10-17T01:54:02.936Z,15.28
2018-10-17T01:55:02.994Z,15.26
2018-10-17T01:56:02.963Z,15.23
2018-10-17T01:57:02.980Z,15.09
2018-10-17T01:58:02.995Z,15.15
2018-10-17T01:59:03.022Z,15.11
2018-10-17T02:00:03.036Z,15.06
2018-10-17T02:01:03.108Z,15.08
2018-10-17T02:02:03.071Z,15.03
2018-10-17T02:03:03.087Z,15.02
2018-10-17T02:04:03.111Z,15.03
2018-10-17T02:05:03.136Z,14.90
2018-10-17T02:06:03.140Z,14.90
2018-10-17T02:07:03.186Z,14.86
2018-10-17T02:08:03.181Z,14.93
2018-10-17T02:09:03.197Z,14.80
2018-10-17T02:10:03.219Z,14.74
2018-10-17T02:11:03.246Z,14.71
2018-10-17T02:12:03.253Z,14.65
2018-10-17T02:13:03.337Z,14.61
2018-10-17T02:14:03.288Z,14.49
2018-10-17T02:15:03.306Z,14.46
2018-10-17T02:16:03.325Z,14.39
2018-10-17T02:17:03.404Z,14.37
2018-10-17T02:18:03.363Z,14.39
2018-10-17T02:19:03.430Z,14.46
2018-10-17T02:20:03.405Z,14.44
2018-10-17T02:21:03.412Z,14.39
2018-10-17T02:22:03.431Z,14.39
2018-10-17T02:23:03.504Z,14.42
2018-10-17T02:24:03.465Z,14.39
2018-10-17T02:25:03.559Z,14.39
2018-10-17T02:26:03.502Z,14.37
2018-10-17T02:27:03.515Z,14.44
2018-10-17T02:28:03.536Z,14.42
2018-10-17T02:29:03.581Z,14.43
2018-10-17T02:30:03.625Z,14.47
2018-10-17T02:31:03.675Z,14.39
2018-10-17T02:32:03.614Z,14.27
2018-10-17T02:33:03.632Z,14.27
2018-10-17T02:34:03.645Z,14.24
2018-10-17T02:35:03.690Z,14.20
2018-10-17T02:36:03.694Z,14.13
2018-10-17T02:37:03.748Z,14.17
2018-10-17T02:38:03.714Z,14.27
2018-10-17T02:39:03.741Z,14.16
2018-10-17T02:40:03.751Z,14.17
2018-10-17T02:41:03.839Z,14.19
2018-10-17T02:42:03.794Z,14.07
2018-10-17T02:43:03.878Z,14.10
2018-10-17T02:44:03.821Z,14.12
2018-10-17T02:45:03.836Z,14.20
2018-10-17T02:46:03.858Z,14.20
2018-10-17T02:47:03.895Z,14.21
2018-10-17T02:48:03.891Z,14.13
2018-10-17T02:49:03.910Z,14.19
2018-10-17T02:50:03.924Z,14.16
2018-10-17T02:51:03.946Z,14.19
2018-10-17T02:52:03.963Z,14.17
2018-10-17T02:53:04.025Z,14.25
2018-10-17T02:54:03.996Z,14.17
2018-10-17T02:55:04.041Z,14.21
2018-10-17T02:56:04.033Z,14.16
2018-10-17T02:57:04.042Z,14.16
2018-10-17T02:58:04.069Z,14.06
2018-10-17T02:59:04.194Z,14.20
2018-10-17T03:00:04.098Z,14.17
2018-10-17T03:01:04.135Z,14.13
2018-10-17T03:02:04.131Z,14.17
2018-10-17T03:03:04.150Z,14.14
2018-10-17T03:04:04.163Z,14.13
2018-10-17T03:05:04.249Z,14.13
2018-10-17T03:06:04.204Z,14.13
2018-10-17T03:07:04.229Z,14.17
2018-10-17T03:08:04.234Z,14.13
2018-10-17T03:38:28.657Z,13.98
2018-10-17T03:39:28.638Z,13.96
2018-10-17T03:41:20.549Z,13.89
2018-10-17T03:42:20.547Z,14.01
2018-10-17T03:44:12.472Z,13.99
2018-10-17T03:45:12.465Z,13.91
2018-10-17T03:47:04.413Z,13.91
2018-10-17T03:48:04.385Z,13.88
2018-10-17T03:49:56.345Z,13.84
2018-10-17T03:50:56.297Z,13.91
2018-10-17T03:52:48.250Z,13.88
2018-10-17T03:53:48.222Z,13.89
2018-10-17T03:55:40.131Z,13.81
2018-10-17T03:56:40.141Z,13.74
2018-10-17T03:58:32.076Z,13.79
2018-10-17T03:59:32.278Z,13.79
2018-10-17T04:01:23.980Z,13.80
2018-10-17T04:02:23.990Z,13.88
2018-10-17T04:04:15.925Z,13.96
2018-10-17T04:05:15.998Z,14.04
2018-10-17T04:07:07.916Z,14.02
2018-10-17T04:08:07.841Z,14.04
2018-10-17T04:09:59.779Z,13.98
2018-10-17T04:10:59.785Z,13.81
2018-10-17T04:12:51.713Z,13.81
2018-10-17T04:13:51.699Z,13.74
2018-10-17T04:15:43.611Z,13.76
2018-10-17T04:16:43.617Z,13.76
2018-10-17T04:18:35.567Z,13.91
2018-10-17T04:19:35.556Z,13.92
2018-10-17T04:21:27.474Z,13.83
2018-10-17T04:22:27.544Z,13.80
2018-10-17T04:24:19.431Z,13.80
2018-10-17T04:25:19.460Z,13.74
2018-10-17T04:27:11.340Z,13.59
2018-10-17T04:28:11.376Z,13.59
2018-10-17T04:30:03.290Z,13.46
2018-10-17T04:31:03.309Z,13.54
2018-10-17T04:32:55.201Z,13.43
2018-10-17T04:33:55.193Z,13.43
2018-10-17T04:35:47.116Z,13.43
2018-10-17T04:36:47.129Z,13.46
2018-10-17T04:38:39.084Z,13.40
2018-10-17T04:39:39.060Z,13.43
2018-10-17T04:41:30.978Z,13.25
2018-10-17T04:42:30.984Z,13.30
2018-10-17T04:44:22.930Z,13.29
2018-10-17T04:45:22.921Z,13.21
2018-10-17T04:47:14.913Z,13.30
2018-10-17T04:48:14.851Z,13.20
2018-10-17T04:50:06.789Z,13.27
2018-10-17T04:51:06.778Z,13.18
2018-10-17T04:52:58.773Z,13.22
2018-10-17T04:53:58.705Z,13.09
2018-10-17T04:55:50.645Z,13.06
2018-10-17T04:56:50.629Z,13.09
2018-10-17T04:58:42.572Z,13.04
2018-10-17T04:59:42.566Z,13.02
2018-10-17T05:01:34.477Z,13.02
2018-10-17T05:02:34.487Z,13.04
2018-10-17T05:04:26.464Z,12.96
2018-10-17T05:05:26.422Z,12.95
2018-10-17T05:07:18.380Z,12.85
2018-10-17T05:08:18.358Z,12.88
2018-10-17T05:10:10.309Z,12.82
2018-10-17T05:11:10.320Z,12.93
2018-10-17T05:13:02.262Z,12.88
2018-10-17T05:14:02.238Z,12.88
2018-10-17T05:15:54.150Z,12.99
2018-10-17T05:16:54.163Z,12.97
2018-10-17T05:18:46.107Z,13.06
2018-10-17T05:19:46.102Z,13.12
2018-10-17T05:21:38.019Z,13.04
2018-10-17T05:22:38.026Z,13.06
2018-10-17T05:24:29.962Z,13.02
2018-10-17T05:25:29.953Z,13.00
2018-10-17T05:27:21.867Z,12.97
2018-10-17T05:28:21.878Z,12.96
2018-10-17T05:30:13.815Z,12.97
2018-10-17T05:31:13.873Z,12.97
2018-10-17T05:33:05.742Z,12.99
2018-10-17T05:34:05.736Z,13.00
2018-10-17T05:35:57.659Z,13.12
2018-10-17T05:36:57.676Z,13.04
2018-10-17T05:38:49.611Z,13.07
2018-10-17T05:39:49.605Z,13.11
2018-10-17T05:41:41.517Z,13.04
2018-10-17T05:42:41.534Z,13.00
2018-10-17T05:44:33.511Z,13.07
2018-10-17T05:45:33.459Z,12.96
2018-10-17T05:47:25.376Z,12.97
2018-10-17T05:48:25.396Z,12.89
2018-10-17T05:50:17.323Z,12.89
2018-10-17T05:51:17.315Z,12.87
2018-10-17T05:53:09.294Z,12.77
2018-10-17T05:54:09.239Z,12.82
2018-10-17T05:56:01.160Z,12.78
2018-10-17T05:57:01.171Z,12.78
2018-10-17T05:58:53.159Z,12.82
2018-10-17T05:59:53.092Z,12.92
2018-10-17T06:01:45.107Z,12.84
2018-10-17T06:02:45.026Z,12.82
2018-10-17T06:04:36.973Z,12.82
2018-10-17T06:05:36.950Z,12.82
2018-10-17T06:07:28.875Z,12.77
2018-10-17T06:08:28.882Z,12.82
2018-10-17T06:10:20.970Z,12.84
2018-10-17T06:11:20.814Z,12.89
2018-10-17T06:13:12.795Z,12.89
2018-10-17T06:14:12.737Z,12.93
2018-10-17T06:16:04.659Z,12.99
2018-10-17T06:17:04.704Z,12.99
2018-10-17T06:18:56.648Z,13.04
2018-10-17T06:19:56.591Z,13.00
2018-10-17T06:21:48.519Z,12.99
2018-10-17T06:22:48.529Z,12.99
2018-10-17T06:24:40.468Z,13.04
2018-10-17T06:25:40.460Z,13.04
2018-10-17T06:27:32.373Z,13.02
2018-10-17T06:28:32.392Z,13.12
2018-10-17T06:30:24.339Z,13.06
2018-10-17T06:31:24.332Z,13.11
2018-10-17T06:33:16.736Z,13.07
2018-10-17T06:34:16.874Z,13.14
2018-10-17T06:36:08.680Z,13.03
2018-10-17T06:37:08.714Z,13.09
2018-10-17T06:39:00.610Z,13.11
2018-10-17T06:40:00.598Z,13.12
2018-10-17T06:41:52.517Z,13.04
2018-10-17T06:42:52.592Z,13.09
2018-10-17T06:44:44.462Z,13.04
2018-10-17T06:45:44.461Z,13.09
2018-10-17T06:47:36.368Z,13.15
2018-10-17T06:48:36.379Z,13.15
2018-10-17T06:50:28.316Z,13.12
2018-10-17T06:51:28.302Z,13.17
2018-10-17T06:53:20.229Z,13.15
2018-10-17T06:54:20.293Z,13.22
2018-10-17T06:56:12.175Z,13.24
2018-10-17T06:57:12.163Z,13.14
2018-10-17T06:59:04.151Z,13.20
2018-10-17T07:00:04.089Z,13.21
2018-10-17T07:01:56.096Z,13.22
2018-10-17T07:02:56.019Z,13.21
2018-10-17T07:04:47.952Z,13.29
2018-10-17T07:05:47.938Z,13.37
2018-10-17T07:07:39.863Z,13.41
2018-10-17T07:08:39.985Z,13.40
2018-10-17T07:10:31.816Z,13.41
2018-10-17T07:11:31.812Z,13.40
2018-10-17T07:13:23.714Z,13.25
2018-10-17T07:14:23.724Z,13.37
2018-10-17T07:16:15.675Z,13.43
2018-10-17T07:17:15.666Z,13.46
2018-10-17T07:19:07.622Z,13.54
2018-10-17T07:20:07.589Z,13.58
2018-10-17T07:21:59.512Z,13.62
2018-10-17T07:22:59.527Z,13.73
2018-10-17T07:24:51.475Z,13.89
2018-10-17T07:25:51.444Z,13.87
2018-10-17T07:27:43.362Z,13.96
2018-10-17T07:28:43.391Z,13.98
2018-10-17T07:29:43.662Z,14.01
2018-10-17T07:30:43.415Z,14.14
2018-10-17T07:31:43.421Z,14.17
2018-10-17T07:32:43.440Z,14.14
2018-10-17T07:33:43.458Z,14.20
2018-10-17T07:34:43.472Z,14.24
2018-10-17T07:35:43.538Z,14.31
2018-10-17T07:36:43.513Z,14.44
2018-10-17T07:37:43.530Z,14.53
2018-10-17T07:38:43.547Z,14.68
2018-10-17T07:39:43.563Z,14.72
2018-10-17T07:40:43.577Z,14.78
2018-10-17T07:41:43.596Z,14.86
2018-10-17T07:42:43.615Z,14.91
2018-10-17T07:43:43.636Z,15.03
2018-10-17T07:44:43.645Z,15.02
2018-10-17T07:45:43.767Z,15.02
2018-10-17T07:46:43.682Z,15.11
2018-10-17T07:47:43.704Z,15.12
2018-10-17T07:48:43.718Z,15.21
2018-10-17T07:49:43.740Z,15.24
2018-10-17T07:50:43.759Z,15.28
2018-10-17T07:51:43.770Z,15.42
2018-10-17T07:52:43.835Z,15.45
2018-10-17T07:53:43.823Z,15.51
2018-10-17T07:54:43.841Z,15.59
2018-10-17T07:55:43.845Z,15.70
2018-10-17T07:56:43.858Z,15.63
2018-10-17T07:57:43.877Z,15.74
2018-10-17T07:58:43.907Z,15.78
2018-10-17T07:59:43.963Z,15.89
2018-10-17T08:00:43.932Z,15.89
2018-10-17T08:01:43.951Z,15.96
2018-10-17T08:02:43.966Z,16.12
2018-10-17T08:03:43.982Z,16.30
2018-10-17T08:04:44.004Z,16.42
2018-10-17T08:05:44.022Z,16.52
2018-10-17T08:06:44.079Z,16.63
2018-10-17T08:07:44.084Z,16.63
2018-10-17T08:08:44.074Z,16.74
2018-10-17T08:09:44.098Z,16.89
2018-10-17T08:10:44.111Z,16.81
2018-10-17T08:11:44.132Z,16.92
2018-10-17T08:12:44.151Z,17.03
2018-10-17T08:13:44.168Z,16.98
2018-10-17T08:14:44.185Z,16.96
2018-10-17T08:15:44.205Z,17.10
2018-10-17T08:16:44.225Z,17.07
2018-10-17T08:17:44.261Z,17.22
2018-10-17T08:18:44.264Z,17.15
2018-10-17T08:19:44.281Z,17.15
2018-10-17T08:20:44.303Z,17.15
2018-10-17T08:21:44.318Z,17.15
2018-10-17T08:22:44.336Z,17.22
2018-10-17T08:23:44.372Z,17.15
2018-10-17T08:24:44.374Z,17.17
2018-10-17T08:25:44.396Z,17.18
2018-10-17T08:26:44.409Z,17.17
2018-10-17T08:27:44.429Z,17.20
2018-10-17T08:28:44.447Z,17.30
2018-10-17T08:29:44.469Z,17.35
2018-10-17T08:30:44.500Z,17.40
2018-10-17T08:31:44.508Z,17.41
2018-10-17T08:32:44.530Z,17.33
2018-10-17T08:33:44.543Z,17.29
2018-10-17T08:34:44.566Z,17.28
2018-10-17T08:35:44.690Z,17.40
2018-10-17T08:36:44.777Z,17.32
2018-10-17T08:37:44.959Z,17.30
2018-10-17T08:38:44.640Z,17.33
2018-10-17T08:39:44.661Z,17.33
2018-10-17T08:40:44.687Z,17.33
2018-10-17T08:41:44.702Z,17.33
2018-10-17T08:42:44.717Z,17.40
2018-10-17T08:43:44.738Z,17.48
2018-10-17T08:44:44.757Z,17.41
2018-10-17T08:45:44.773Z,17.47
2018-10-17T08:46:44.795Z,17.55
2018-10-17T08:47:44.811Z,17.53
2018-10-17T08:48:44.831Z,17.59
2018-10-17T08:49:44.851Z,17.57
2018-10-17T08:50:44.963Z,17.62
2018-10-17T08:51:44.891Z,17.62
2018-10-17T08:52:44.909Z,17.57
2018-10-17T08:53:44.933Z,17.57
2018-10-17T08:54:44.948Z,17.73
2018-10-17T08:55:44.969Z,17.73
2018-10-17T08:56:44.986Z,17.78
2018-10-17T08:57:45.027Z,17.84
2018-10-17T08:58:45.027Z,17.92
2018-10-17T08:59:45.047Z,18.03
2018-10-17T09:00:45.068Z,17.99
2018-10-17T09:01:45.094Z,18.03
2018-10-17T09:02:45.104Z,18.02
2018-10-17T09:03:45.120Z,18.10
2018-10-17T09:04:45.141Z,18.09
2018-10-17T09:05:45.161Z,18.06
2018-10-17T09:06:45.200Z,18.10
2018-10-17T09:07:45.232Z,18.21
2018-10-17T09:08:45.222Z,18.15
2018-10-17T09:09:45.242Z,18.15
2018-10-17T09:10:45.259Z,18.13
2018-10-17T09:11:45.276Z,18.18
2018-10-17T09:12:45.299Z,18.34
2018-10-17T09:13:45.318Z,18.29
2018-10-17T09:14:45.336Z,18.27
2018-10-17T09:15:45.358Z,18.31
2018-10-17T09:16:45.443Z,18.27
2018-10-17T09:17:45.394Z,18.36
2018-10-17T09:18:45.415Z,18.49
2018-10-17T09:19:45.665Z,18.49
2018-10-17T09:20:45.706Z,18.55
2018-10-17T09:21:45.732Z,18.50
2018-10-17T09:22:45.660Z,18.54
2018-10-17T09:23:45.515Z,18.55
2018-10-17T09:24:45.532Z,18.62
2018-10-17T09:25:45.667Z,18.62
2018-10-17T09:26:45.573Z,18.61
2018-10-17T09:27:45.594Z,18.61
2018-10-17T09:28:45.615Z,18.62
2018-10-17T09:29:45.632Z,18.64
2018-10-17T09:30:45.761Z,18.68
2018-10-17T09:31:45.674Z,18.72
2018-10-17T09:32:45.702Z,18.74
2018-10-17T09:33:45.711Z,18.67
2018-10-17T09:34:45.733Z,18.72
2018-10-17T09:35:45.832Z,18.68
2018-10-17T09:36:45.768Z,18.76
2018-10-17T09:37:45.791Z,18.72
2018-10-17T09:38:45.812Z,18.83
2018-10-17T09:39:45.830Z,18.82
2018-10-17T09:40:45.850Z,18.80
2018-10-17T09:41:45.872Z,18.92
2018-10-17T09:42:45.898Z,18.94
2018-10-17T09:43:45.921Z,19.01
2018-10-17T09:44:45.925Z,18.95
2018-10-17T09:45:45.945Z,18.95
2018-10-17T09:46:45.969Z,18.95
2018-10-17T09:47:45.988Z,18.95
2018-10-17T09:48:46.006Z,18.98
2018-10-17T09:49:46.027Z,18.99
2018-10-17T09:50:46.048Z,18.94
2018-10-17T09:51:46.068Z,18.95
2018-10-17T09:52:46.086Z,19.02
2018-10-17T09:53:46.108Z,19.02
2018-10-17T09:54:46.138Z,19.01
2018-10-17T09:55:46.148Z,19.08
2018-10-17T09:56:46.168Z,19.14
2018-10-17T09:57:46.186Z,19.02
2018-10-17T09:58:46.208Z,19.10
2018-10-17T09:59:46.231Z,19.02
2018-10-17T10:00:46.252Z,19.05
2018-10-17T10:01:46.267Z,19.01
2018-10-17T10:02:46.290Z,19.05
2018-10-17T10:03:46.308Z,18.98
2018-10-17T10:04:46.327Z,18.87
2018-10-17T10:05:46.351Z,19.02
2018-10-17T10:06:46.372Z,19.01
2018-10-17T10:07:46.388Z,19.02
2018-10-17T10:08:46.408Z,19.08
2018-10-17T10:09:46.425Z,19.15
2018-10-17T10:10:46.506Z,19.17
2018-10-17T10:11:46.467Z,19.36
2018-10-17T10:12:46.496Z,19.32
2018-10-17T10:13:46.511Z,19.31
2018-10-17T10:14:46.524Z,19.29
2018-10-17T10:15:46.548Z,19.43
2018-10-17T10:16:46.573Z,19.46
2018-10-17T10:17:46.589Z,19.53
2018-10-17T10:18:46.605Z,19.46
2018-10-17T10:19:46.625Z,19.46
2018-10-17T10:20:46.649Z,19.42
2018-10-17T10:21:46.662Z,19.40
2018-10-17T10:22:46.688Z,19.38
2018-10-17T10:23:46.801Z,19.33
2018-10-17T10:24:46.820Z,19.39
2018-10-17T10:25:46.745Z,19.40
2018-10-17T10:26:46.767Z,19.39
2018-10-17T10:27:46.803Z,19.36
2018-10-17T10:28:46.810Z,19.36
2018-10-17T10:29:46.895Z,19.38
2018-10-17T10:30:46.850Z,19.48
2018-10-17T10:31:46.879Z,19.50
2018-10-17T10:32:46.943Z,19.54
2018-10-17T10:33:46.921Z,19.57
2018-10-17T10:34:46.933Z,19.58
2018-10-17T10:35:46.950Z,19.58
2018-10-17T10:36:46.973Z,19.58
2018-10-17T10:37:46.988Z,19.55
2018-10-17T10:38:47.006Z,19.55
2018-10-17T10:39:47.031Z,19.60
2018-10-17T10:40:47.091Z,19.69
2018-10-17T10:41:47.075Z,19.79
2018-10-17T10:42:47.092Z,19.84
2018-10-17T10:43:47.106Z,19.73
2018-10-17T10:44:47.149Z,19.80
2018-10-17T10:45:47.150Z,19.76
2018-10-17T10:46:47.187Z,19.76
2018-10-17T10:47:47.196Z,19.91
2018-10-17T10:48:47.212Z,19.86
2018-10-17T10:49:47.233Z,19.86
2018-10-17T10:50:47.251Z,19.84
2018-10-17T10:51:47.281Z,19.90
2018-10-17T10:52:47.310Z,19.84
2018-10-17T10:53:47.312Z,19.97
2018-10-17T10:54:47.331Z,19.97
2018-10-17T10:55:47.353Z,19.90
2018-10-17T10:56:47.404Z,19.91
2018-10-17T10:57:47.413Z,19.91
2018-10-17T10:58:47.572Z,19.93
2018-10-17T10:59:47.437Z,19.87
2018-10-17T11:00:47.458Z,19.93
2018-10-17T11:01:47.477Z,19.84
2018-10-17T11:02:47.498Z,19.79
2018-10-17T11:03:47.516Z,19.95
2018-10-17T11:04:47.627Z,19.94
2018-10-17T11:05:47.803Z,20.08
2018-10-17T11:06:47.584Z,20.18
2018-10-17T11:07:47.598Z,19.97
2018-10-17T11:08:47.613Z,19.94
2018-10-17T11:09:47.639Z,20.06
2018-10-17T11:10:47.661Z,20.06
2018-10-17T11:11:47.691Z,20.06
2018-10-17T11:12:47.700Z,20.12
2018-10-17T11:13:47.790Z,20.20
2018-10-17T11:14:47.880Z,20.20
2018-10-17T11:15:47.766Z,20.20
2018-10-17T11:16:47.783Z,20.15
2018-10-17T11:17:47.800Z,20.10
2018-10-17T11:18:47.820Z,20.23
2018-10-17T11:19:47.843Z,20.16
2018-10-17T11:20:47.863Z,20.23
2018-10-17T11:21:47.897Z,20.21
2018-10-17T11:22:47.909Z,20.33
2018-10-17T11:23:47.926Z,20.43
2018-10-17T11:24:47.948Z,20.53
2018-10-17T11:25:47.968Z,20.51
2018-10-17T11:26:47.988Z,20.58
2018-10-17T11:27:48.007Z,20.65
2018-10-17T11:28:48.041Z,20.56
2018-10-17T11:29:48.055Z,20.53
2018-10-17T11:30:48.075Z,20.62
2018-10-17T11:31:48.168Z,20.62
2018-10-17T11:32:48.112Z,20.65
2018-10-17T11:33:48.131Z,20.79
2018-10-17T11:34:48.155Z,20.66
2018-10-17T11:35:48.218Z,20.66
2018-10-17T11:36:48.195Z,20.68
2018-10-17T11:37:48.263Z,20.76
2018-10-17T11:38:48.239Z,20.87
2018-10-17T11:39:48.259Z,20.86
2018-10-17T11:40:48.323Z,20.84
2018-10-17T11:41:48.301Z,20.90
2018-10-17T11:42:48.325Z,20.90
2018-10-17T11:43:48.347Z,20.93
2018-10-17T11:44:48.369Z,20.96
2018-10-17T11:45:48.383Z,20.96
2018-10-17T11:46:48.404Z,21.09
2018-10-17T11:47:48.525Z,21.08
2018-10-17T11:48:48.450Z,21.20
2018-10-17T11:49:48.473Z,21.21
2018-10-17T11:50:48.491Z,21.20
2018-10-17T11:51:48.509Z,21.23
2018-10-17T11:52:48.531Z,21.21
2018-10-17T11:53:48.557Z,21.26
2018-10-17T11:54:48.570Z,21.21
2018-10-17T11:55:48.599Z,21.23
2018-10-17T11:56:48.613Z,21.23
2018-10-17T11:57:48.657Z,21.36
2018-10-17T11:58:48.660Z,21.41
2018-10-17T11:59:48.772Z,21.38
2018-10-17T12:00:48.707Z,21.38
2018-10-17T12:01:48.721Z,21.42
2018-10-17T12:02:48.745Z,21.39
2018-10-17T12:03:48.927Z,21.42
2018-10-17T12:04:49.093Z,21.48
2018-10-17T12:05:48.916Z,21.54
2018-10-17T12:06:48.826Z,21.63
2018-10-17T12:07:48.854Z,21.64
2018-10-17T12:08:48.872Z,21.60
2018-10-17T12:09:48.895Z,21.64
2018-10-17T12:10:48.918Z,21.64
2018-10-17T12:11:48.994Z,21.74
2018-10-17T12:12:48.979Z,21.81
2018-10-17T12:13:48.986Z,21.74
2018-10-17T12:14:49.005Z,21.71
2018-10-17T12:15:49.023Z,21.69
2018-10-17T12:16:49.045Z,21.75
2018-10-17T12:17:49.072Z,21.72
2018-10-17T12:18:49.092Z,21.71
2018-10-17T12:19:49.154Z,21.74
2018-10-17T12:20:49.162Z,21.76
2018-10-17T12:21:49.155Z,21.79
2018-10-17T12:22:49.172Z,21.90
2018-10-17T12:23:49.192Z,21.91
2018-10-17T12:24:49.214Z,21.92
2018-10-17T12:25:49.236Z,21.92
2018-10-17T12:26:49.255Z,21.81
2018-10-17T12:27:49.299Z,21.90
2018-10-17T12:28:49.330Z,21.88
2018-10-17T12:29:49.322Z,21.83
2018-10-17T12:30:49.343Z,21.94
2018-10-17T12:31:49.369Z,21.94
2018-10-17T12:32:49.389Z,21.97
2018-10-17T12:33:49.409Z,22.04
2018-10-17T12:34:49.433Z,21.99
2018-10-17T12:35:49.452Z,22.10
2018-10-17T12:36:49.479Z,22.07
2018-10-17T12:37:49.502Z,21.97
2018-10-17T12:38:49.540Z,21.99
2018-10-17T12:39:49.632Z,22.06
2018-10-17T12:40:49.729Z,22.10
2018-10-17T12:41:49.585Z,22.10
2018-10-17T12:42:49.605Z,22.07
2018-10-17T12:43:49.628Z,22.09
2018-10-17T12:44:49.698Z,22.14
2018-10-17T12:45:49.778Z,22.17
2018-10-17T12:46:49.698Z,22.07
2018-10-17T12:47:49.716Z,22.10
2018-10-17T12:48:49.734Z,22.16
2018-10-17T12:49:49.821Z,22.12
2018-10-17T12:50:49.781Z,22.20
2018-10-17T12:51:49.823Z,22.09
2018-10-17T12:52:49.957Z,22.10
2018-10-17T12:53:49.848Z,22.14
2018-10-17T12:54:49.869Z,22.16
2018-10-17T12:55:49.892Z,22.19
2018-10-17T12:56:49.910Z,22.29
2018-10-17T12:57:49.932Z,22.27
2018-10-17T12:58:49.959Z,22.20
2018-10-17T12:59:49.977Z,22.28
2018-10-17T13:00:50.004Z,22.28
2018-10-17T13:01:50.040Z,22.31
2018-10-17T13:02:50.210Z,22.23
2018-10-17T13:03:50.065Z,22.19
2018-10-17T13:04:50.084Z,22.23
2018-10-17T13:05:50.109Z,22.23
2018-10-17T13:06:50.133Z,22.23
2018-10-17T13:07:50.153Z,22.20
2018-10-17T13:08:50.170Z,22.20
2018-10-17T13:09:50.195Z,22.19
2018-10-17T13:10:50.268Z,22.20
2018-10-17T13:11:50.240Z,22.32
2018-10-17T13:12:50.517Z,22.22
2018-10-17T13:13:50.282Z,22.13
2018-10-17T13:14:50.311Z,22.13
2018-10-17T13:15:50.330Z,22.19
2018-10-17T13:16:50.350Z,22.14
2018-10-17T13:17:50.374Z,22.20
2018-10-17T13:18:50.393Z,22.23
2018-10-17T13:19:50.422Z,22.29
2018-10-17T13:20:50.436Z,22.29
2018-10-17T13:21:50.458Z,22.27
2018-10-17T13:22:50.483Z,22.31
2018-10-17T13:23:50.503Z,22.29
2018-10-17T13:24:50.524Z,22.27
2018-10-17T13:25:50.555Z,22.31
2018-10-17T13:26:50.569Z,22.37
2018-10-17T13:27:50.593Z,22.39
2018-10-17T13:28:50.614Z,22.47
2018-10-17T13:29:50.633Z,22.44
2018-10-17T13:30:50.657Z,22.47
2018-10-17T13:31:50.679Z,22.52
2018-10-17T13:32:50.703Z,22.50
2018-10-17T13:33:50.722Z,22.44
2018-10-17T13:34:50.746Z,22.47
2018-10-17T13:35:50.767Z,22.53
2018-10-17T13:36:50.788Z,22.56
2018-10-17T13:37:50.810Z,22.50
2018-10-17T13:38:50.830Z,22.53
2018-10-17T13:39:50.855Z,22.54
2018-10-17T13:40:50.877Z,22.54
2018-10-17T13:41:50.904Z,22.49
2018-10-17T13:42:50.973Z,22.50
2018-10-17T13:43:50.947Z,22.56
2018-10-17T13:44:50.960Z,22.49
2018-10-17T13:45:50.984Z,22.52
2018-10-17T13:46:51.009Z,22.50
2018-10-17T13:47:51.030Z,22.50
2018-10-17T13:48:51.103Z,22.56
2018-10-17T13:49:51.071Z,22.52
2018-10-17T13:50:51.096Z,22.54
2018-10-17T13:51:51.117Z,22.52
2018-10-17T13:52:51.190Z,22.53
2018-10-17T13:53:51.163Z,22.50
2018-10-17T13:54:51.299Z,22.50
2018-10-17T13:55:51.206Z,22.53
2018-10-17T13:56:51.228Z,22.54
2018-10-17T13:57:51.333Z,22.54
2018-10-17T13:58:51.268Z,22.52
2018-10-17T13:59:51.400Z,22.49
2018-10-17T14:00:51.325Z,22.50
2018-10-17T14:01:51.336Z,22.52
2018-10-17T14:02:51.358Z,22.57
2018-10-17T14:03:51.434Z,22.49
2018-10-17T14:04:51.422Z,22.62
2018-10-17T14:05:51.473Z,22.49
2018-10-17T14:06:51.442Z,22.50
2018-10-17T14:07:51.466Z,22.53
2018-10-17T14:08:51.529Z,22.54
2018-10-17T14:09:51.513Z,22.57
2018-10-17T14:10:51.529Z,22.53
2018-10-17T14:11:51.609Z,22.57
2018-10-17T14:12:51.575Z,22.57
2018-10-17T14:13:51.597Z,22.50
2018-10-17T14:14:51.636Z,22.56
2018-10-17T14:15:51.653Z,22.50
2018-10-17T14:16:51.660Z,22.50
2018-10-17T14:17:51.691Z,22.37
2018-10-17T14:18:51.711Z,22.50
2018-10-17T14:19:51.726Z,22.38
2018-10-17T14:20:51.771Z,22.37
2018-10-17T14:21:51.772Z,22.35
2018-10-17T14:22:51.794Z,22.37
2018-10-17T14:23:51.824Z,22.39
2018-10-17T14:24:51.839Z,22.43
2018-10-17T14:25:51.860Z,22.34
2018-10-17T14:26:51.895Z,22.32
2018-10-17T14:27:51.900Z,22.28
2018-10-17T14:28:51.923Z,22.31
2018-10-17T14:29:51.983Z,22.22
2018-10-17T14:30:51.972Z,22.28